Time;durP1;ratioP1;P1;durP2;ratioP2;P2;SDS_P1;SDS_P2;PMS_P1;PMS_P2;Temp;Humidity;BMP_temperature;BMP_pressure;BME280_temperature;BME280_humidity;BME280_pressure;Samples;Min_cycle;Max_cycle;Signal;HPM_P1;HPM_P2
2022/10/24 04:01:24;;;;;;;1999.90;999.90;;;17.30;99.90;;;;;;5634640;22;20548;-76
2022/10/24 04:03:49;;;;;;;1999.90;999.90;;;17.30;99.90;;;;;;5075772;28;20077;-76
2022/10/24 04:06:15;;;;;;;1999.90;999.90;;;17.20;99.90;;;;;;5075447;28;20532;-76
2022/10/24 04:08:41;;;;;;;1999.90;999.90;;;17.20;99.90;;;;;;5073858;28;20041;-76
2022/10/24 04:11:06;;;;;;;1999.90;999.90;;;17.20;99.90;;;;;;5075126;28;20049;-76
2022/10/24 04:13:32;;;;;;;1999.90;999.90;;;17.20;99.90;;;;;;5076221;28;20087;-76
2022/10/24 04:15:58;;;;;;;1999.90;999.90;;;17.30;99.90;;;;;;5075085;28;20029;-78
2022/10/24 04:18:23;;;;;;;1999.90;999.90;;;17.40;99.90;;;;;;5074389;28;20099;-79
2022/10/24 04:20:49;;;;;;;1999.90;999.90;;;17.50;99.90;;;;;;5075589;28;20123;-78
2022/10/24 04:23:14;;;;;;;1999.90;999.90;;;17.40;99.90;;;;;;5075540;28;20031;-78
2022/10/24 04:25:40;;;;;;;1999.90;999.90;;;17.40;99.90;;;;;;5074444;28;20044;-79
2022/10/24 04:28:06;;;;;;;1999.90;999.90;;;17.30;99.90;;;;;;5074673;28;20044;-79
2022/10/24 04:30:32;;;;;;;1999.90;999.90;;;17.20;99.90;;;;;;5075805;28;20060;-79
2022/10/24 04:32:57;;;;;;;1999.90;999.90;;;17.20;99.90;;;;;;5076589;28;20064;-79
2022/10/24 04:35:24;;;;;;;1999.90;999.90;;;17.20;99.90;;;;;;5076075;28;20101;-79
2022/10/24 04:37:50;;;;;;;1999.90;999.90;;;17.10;99.90;;;;;;5073823;28;20033;-78
2022/10/24 04:40:16;;;;;;;1999.90;999.90;;;17.30;99.90;;;;;;5076197;28;20033;-78
2022/10/24 04:42:41;;;;;;;1999.90;999.90;;;17.10;99.90;;;;;;5075963;28;20505;-79
2022/10/24 04:45:07;;;;;;;1999.90;999.90;;;17.10;99.90;;;;;;5076483;28;20513;-79
2022/10/24 04:47:33;;;;;;;1999.90;999.90;;;17.10;99.90;;;;;;5075311;28;20162;-79
2022/10/24 04:49:59;;;;;;;1999.90;999.90;;;17.20;99.90;;;;;;5074855;28;20601;-79
2022/10/24 04:52:24;;;;;;;1999.90;999.90;;;17.20;99.90;;;;;;5074737;28;20102;-79
2022/10/24 04:54:50;;;;;;;1999.90;999.90;;;17.10;99.90;;;;;;5075434;28;20064;-79
2022/10/24 04:57:16;;;;;;;1999.90;999.90;;;17.10;99.90;;;;;;5076444;28;20033;-79
2022/10/24 04:59:41;;;;;;;1999.90;999.90;;;17.10;99.90;;;;;;5074233;28;20043;-79
2022/10/24 05:02:07;;;;;;;1999.90;999.90;;;17.00;99.90;;;;;;5075879;28;20494;-79
2022/10/24 05:04:32;;;;;;;1999.90;999.90;;;17.00;99.90;;;;;;5075994;28;20039;-78
2022/10/24 05:06:58;;;;;;;1999.90;999.90;;;17.00;99.90;;;;;;5075591;28;20036;-79
2022/10/24 05:09:23;;;;;;;1999.90;999.90;;;17.00;99.90;;;;;;5074359;28;20044;-79
2022/10/24 05:11:49;;;;;;;1999.90;999.90;;;16.80;99.90;;;;;;5075783;28;20029;-79
2022/10/24 05:14:14;;;;;;;1999.90;999.90;;;16.90;99.90;;;;;;5075375;28;20060;-79
2022/10/24 05:16:40;;;;;;;1999.90;999.90;;;16.90;99.90;;;;;;5075960;28;20511;-79
2022/10/24 05:19:06;;;;;;;1999.90;999.90;;;16.90;99.90;;;;;;5075175;28;20508;-79
2022/10/24 05:21:34;;;;;;;1999.90;999.90;;;16.90;99.90;;;;;;5074191;28;20033;-79
2022/10/24 05:24:00;;;;;;;1999.90;999.90;;;17.00;99.90;;;;;;5074318;28;20033;-79
2022/10/24 05:26:25;;;;;;;1999.90;999.90;;;17.10;99.90;;;;;;5074610;28;20033;-79
2022/10/24 05:28:51;;;;;;;1999.90;999.90;;;17.30;99.90;;;;;;5074616;28;20132;-79
2022/10/24 05:31:16;;;;;;;1999.90;999.90;;;17.40;99.90;;;;;;5075137;28;20033;-79
2022/10/24 05:33:42;;;;;;;1999.90;999.90;;;17.40;99.90;;;;;;5075579;28;20048;-79
2022/10/24 05:36:08;;;;;;;1999.90;999.90;;;17.30;99.90;;;;;;5074235;28;20033;-79
2022/10/24 05:38:33;;;;;;;1999.90;999.90;;;17.30;99.90;;;;;;5076166;28;20033;-78
2022/10/24 05:40:59;;;;;;;1999.90;999.90;;;16.90;99.90;;;;;;5075198;28;20029;-78
2022/10/24 05:43:24;;;;;;;1999.90;999.90;;;16.30;99.90;;;;;;5075598;28;20120;-79
2022/10/24 05:45:50;;;;;;;1999.90;999.90;;;15.20;99.90;;;;;;5073328;28;20110;-79
2022/10/24 05:48:15;;;;;;;1999.90;999.90;;;14.60;99.90;;;;;;5074974;28;20029;-80
2022/10/24 05:50:41;;;;;;;1999.90;999.90;;;14.40;99.90;;;;;;5073257;28;20037;-79
2022/10/24 05:53:07;;;;;;;1999.90;999.90;;;14.50;99.90;;;;;;5070504;28;20025;-80
2022/10/24 05:55:33;;;;;;;1999.90;999.90;;;14.50;99.90;;;;;;5074730;28;20486;-80
2022/10/24 05:57:59;;;;;;;1999.90;999.90;;;14.40;99.90;;;;;;5075450;28;20033;-79
2022/10/24 06:00:25;;;;;;;1999.90;999.90;;;14.40;99.90;;;;;;5074536;28;20033;-77
2022/10/24 06:02:51;;;;;;;1999.90;999.90;;;14.30;99.90;;;;;;5073469;28;20033;-77
2022/10/24 06:05:16;;;;;;;1999.90;999.90;;;14.30;99.90;;;;;;5072934;28;20041;-77
2022/10/24 06:07:42;;;;;;;1999.90;999.90;;;14.30;99.90;;;;;;5073195;28;20021;-77
2022/10/24 06:10:09;;;;;;;1999.90;999.90;;;14.20;99.90;;;;;;5075068;28;20386;-78
2022/10/24 06:12:35;;;;;;;1999.90;999.90;;;14.20;99.90;;;;;;5073852;28;20548;-78
2022/10/24 06:15:02;;;;;;;1999.90;999.90;;;14.20;99.90;;;;;;5074571;28;20060;-77
2022/10/24 06:17:27;;;;;;;1999.90;999.90;;;14.20;99.90;;;;;;5074195;28;20033;-78
2022/10/24 06:19:53;;;;;;;1999.90;999.90;;;14.10;99.90;;;;;;5075318;28;20037;-78
2022/10/24 06:22:22;;;;;;;1999.90;999.90;;;14.10;99.90;;;;;;5075447;28;20033;-78
2022/10/24 06:24:48;;;;;;;1999.90;999.90;;;14.20;99.90;;;;;;5075844;28;20555;-79
2022/10/24 06:27:14;;;;;;;1999.90;999.90;;;14.20;99.90;;;;;;5078877;28;20029;-80
2022/10/24 06:29:40;;;;;;;1999.90;999.90;;;14.10;99.90;;;;;;5078825;28;20127;-83
2022/10/24 06:32:06;;;;;;;1999.90;999.90;;;14.20;99.90;;;;;;5077645;28;20057;-78
2022/10/24 06:34:31;;;;;;;1999.90;999.90;;;14.40;99.90;;;;;;5078861;28;20127;-79
2022/10/24 06:36:57;;;;;;;1999.90;999.90;;;14.40;99.90;;;;;;5077471;28;20478;-78
2022/10/24 06:39:22;;;;;;;1999.90;999.90;;;14.40;99.90;;;;;;5079217;28;20033;-78
2022/10/24 06:41:48;;;;;;;1999.90;999.90;;;14.40;99.90;;;;;;5078436;28;20037;-77
2022/10/24 06:44:14;;;;;;;1999.90;999.90;;;14.20;99.90;;;;;;5078412;28;20037;-77
2022/10/24 06:46:39;;;;;;;1999.90;999.90;;;14.40;99.90;;;;;;5077596;28;20033;-80
2022/10/24 06:49:05;;;;;;;1999.90;999.90;;;14.50;99.90;;;;;;5078081;28;20120;-80
2022/10/24 06:51:31;;;;;;;1999.90;999.90;;;14.40;99.90;;;;;;5077976;28;20402;-77
2022/10/24 06:53:57;;;;;;;1999.90;999.90;;;14.50;99.90;;;;;;5077695;28;20037;-78
2022/10/24 06:56:23;;;;;;;1999.90;999.90;;;14.50;99.90;;;;;;5075830;28;20033;-78
2022/10/24 06:58:49;;;;;;;1999.90;999.90;;;14.50;99.90;;;;;;5077489;28;20037;-78
2022/10/24 07:01:17;;;;;;;1999.90;999.90;;;14.60;99.90;;;;;;5077070;28;20032;-78
2022/10/24 07:03:43;;;;;;;1999.90;999.90;;;14.70;99.90;;;;;;5078264;28;20502;-78
2022/10/24 07:06:18;;;;;;;1999.90;999.90;;;14.70;99.90;;;;;;5077870;28;20033;-77
2022/10/24 07:08:44;;;;;;;1999.90;999.90;;;14.60;99.90;;;;;;5080447;28;20044;-77
2022/10/24 07:11:10;;;;;;;1999.90;999.90;;;14.60;99.90;;;;;;5079425;28;20514;-78
2022/10/24 07:13:36;;;;;;;1999.90;999.90;;;14.60;99.90;;;;;;5077890;28;20041;-77
2022/10/24 07:16:01;;;;;;;1999.90;999.90;;;14.60;99.90;;;;;;5077246;28;20033;-78
2022/10/24 07:18:27;;;;;;;1999.90;999.90;;;14.60;99.90;;;;;;5075952;28;20099;-79
2022/10/24 07:20:52;;;;;;;1999.90;999.90;;;14.60;99.90;;;;;;5066287;28;20483;-79
2022/10/24 07:23:18;;;;;;;1999.90;999.90;;;14.50;99.90;;;;;;5065923;28;20033;-78
2022/10/24 07:25:44;;;;;;;1999.90;999.90;;;14.50;99.90;;;;;;5067264;28;20502;-78
2022/10/24 07:28:10;;;;;;;1999.90;999.90;;;14.50;99.90;;;;;;5056715;28;20034;-80
2022/10/24 07:30:38;;;;;;;1999.90;999.90;;;14.50;99.90;;;;;;5062224;28;20045;-79
2022/10/24 07:33:05;;;;;;;1999.90;999.90;;;14.50;99.90;;;;;;5063176;28;20406;-80
2022/10/24 07:35:31;;;;;;;1999.90;999.90;;;14.60;99.90;;;;;;5064947;28;20037;-77
2022/10/24 07:37:56;;;;;;;1999.90;999.90;;;14.60;99.90;;;;;;5060406;28;20091;-77
2022/10/24 07:40:22;;;;;;;1999.90;999.90;;;14.70;99.90;;;;;;5067402;28;20048;-77
2022/10/24 07:42:48;;;;;;;1999.90;999.90;;;14.70;99.90;;;;;;5055168;28;20057;-77
2022/10/24 07:45:14;;;;;;;1999.90;999.90;;;14.70;99.90;;;;;;5055914;28;20543;-78
2022/10/24 07:47:39;;;;;;;1999.90;999.90;;;14.70;99.90;;;;;;5054986;28;20042;-78
2022/10/24 07:50:05;;;;;;;1999.90;999.90;;;14.70;99.90;;;;;;5064352;28;20039;-77
2022/10/24 07:52:31;;;;;;;1999.90;999.90;;;14.70;99.90;;;;;;5067006;28;20040;-77
2022/10/24 07:54:57;;;;;;;1999.90;999.90;;;14.70;99.90;;;;;;5066073;28;20044;-82
2022/10/24 07:57:23;;;;;;;1999.90;999.90;;;14.70;99.90;;;;;;5058947;28;20044;-77
2022/10/24 07:59:49;;;;;;;1999.90;999.90;;;14.70;99.90;;;;;;5056053;28;20479;-77
2022/10/24 08:02:16;;;;;;;1999.90;999.90;;;14.70;99.90;;;;;;5055861;28;20034;-78
2022/10/24 08:04:42;;;;;;;1999.90;999.90;;;14.80;99.90;;;;;;5055049;28;20037;-77
2022/10/24 08:07:11;;;;;;;1999.90;999.90;;;14.80;99.90;;;;;;5056384;28;20026;-80
2022/10/24 08:09:43;;;;;;;1999.90;999.90;;;14.90;99.90;;;;;;5057433;28;20044;-78
2022/10/24 08:12:09;;;;;;;1999.90;999.90;;;14.90;99.90;;;;;;5064176;28;20052;-77
2022/10/24 08:14:39;;;;;;;1999.90;999.90;;;15.00;99.90;;;;;;5056312;28;20897;-77
2022/10/24 08:17:05;;;;;;;1999.90;999.90;;;15.00;99.90;;;;;;5055101;28;20038;-77
2022/10/24 08:19:31;;;;;;;1999.90;999.90;;;15.00;99.90;;;;;;5063050;28;20103;-77
2022/10/24 08:21:57;;;;;;;1999.90;999.90;;;15.10;99.90;;;;;;5056047;28;20037;-77
2022/10/24 08:24:22;;;;;;;1999.90;999.90;;;15.10;99.90;;;;;;5066729;28;20037;-77
2022/10/24 08:26:48;;;;;;;1999.90;999.90;;;15.10;99.90;;;;;;5062388;28;20033;-78
2022/10/24 08:29:20;;;;;;;1999.90;999.90;;;15.20;99.90;;;;;;5054717;28;20091;-79
2022/10/24 08:31:49;;;;;;;1999.90;999.90;;;15.20;99.90;;;;;;5053341;28;20557;-78
2022/10/24 08:34:15;;;;;;;1999.90;999.90;;;15.10;99.90;;;;;;5058587;28;20048;-78
2022/10/24 08:36:41;;;;;;;1999.90;999.90;;;15.20;99.90;;;;;;5053122;28;20368;-77
2022/10/24 08:39:07;;;;;;;1999.90;999.90;;;15.20;99.90;;;;;;5068452;28;20048;-78
2022/10/24 08:41:39;;;;;;;1999.90;999.90;;;15.20;99.90;;;;;;5073096;28;20100;-78
2022/10/24 08:44:38;;;;;;;1999.90;999.90;;;15.10;99.90;;;;;;5068392;28;20064;-78
2022/10/24 08:47:23;;;;;;;1999.90;999.90;;;15.10;99.90;;;;;;5065359;28;20048;-78
2022/10/24 08:50:04;;;;;;;1999.90;999.90;;;15.10;99.90;;;;;;5054743;28;20492;-78
2022/10/24 08:52:47;;;;;;;1999.90;999.90;;;15.10;99.90;;;;;;5055526;28;20087;-77
2022/10/24 08:55:20;;;;;;;1999.90;999.90;;;15.20;99.90;;;;;;5053657;28;20056;-78
2022/10/24 08:57:51;;;;;;;1999.90;999.90;;;15.20;99.90;;;;;;5054009;28;20033;-78
2022/10/24 09:00:41;;;;;;;1999.90;999.90;;;15.40;99.90;;;;;;5065374;28;20037;-78
2022/10/24 09:03:42;;;;;;;1999.90;999.90;;;15.40;99.90;;;;;;5048080;28;20057;-78
2022/10/24 09:06:16;;;;;;;1999.90;999.90;;;15.40;99.90;;;;;;5055592;28;20038;-78
2022/10/24 09:09:04;;;;;;;1999.90;999.90;;;15.40;99.90;;;;;;5056180;28;20763;-79
2022/10/24 09:11:41;;;;;;;1999.90;999.90;;;15.50;99.90;;;;;;5062063;28;20131;-78
2022/10/24 09:14:13;;;;;;;1999.90;999.90;;;15.50;99.90;;;;;;5075712;28;20033;-78
2022/10/24 09:16:41;;;;;;;1999.90;999.90;;;15.50;99.90;;;;;;5074530;28;20112;-78
2022/10/24 09:19:18;;;;;;;1999.90;999.90;;;15.40;99.90;;;;;;5075589;28;20036;-78
2022/10/24 09:21:45;;;;;;;1999.90;999.90;;;15.50;99.90;;;;;;5075608;28;20091;-79
2022/10/24 09:24:29;;;;;;;1999.90;999.90;;;15.50;99.90;;;;;;5074390;28;20037;-79
2022/10/24 09:26:55;;;;;;;1999.90;999.90;;;15.50;99.90;;;;;;5075096;28;20044;-79
2022/10/24 09:29:21;;;;;;;1999.90;999.90;;;15.60;99.90;;;;;;5075908;28;20037;-78
2022/10/24 09:31:48;;;;;;;1999.90;999.90;;;15.50;99.90;;;;;;5076154;28;20116;-79
2022/10/24 09:34:15;;;;;;;1999.90;999.90;;;15.50;99.90;;;;;;5073642;28;20094;-79
2022/10/24 09:36:41;;;;;;;1999.90;999.90;;;15.40;99.90;;;;;;5074472;28;20029;-78
2022/10/24 09:39:31;;;;;;;1999.90;999.90;;;15.40;99.90;;;;;;5074434;28;20141;-78
2022/10/24 09:41:58;;;;;;;1999.90;999.90;;;15.40;99.90;;;;;;5065802;28;20037;-78
2022/10/24 09:44:42;;;;;;;1999.90;999.90;;;15.50;99.90;;;;;;5074262;28;20043;-79
2022/10/24 09:47:23;;;;;;;1999.90;999.90;;;15.40;99.90;;;;;;5074171;28;20029;-78
2022/10/24 09:49:49;;;;;;;1999.90;999.90;;;15.40;99.90;;;;;;5074340;28;20136;-79
2022/10/24 09:52:19;;;;;;;1999.90;999.90;;;15.50;99.90;;;;;;5073649;28;20112;-78
2022/10/24 09:54:46;;;;;;;1999.90;999.90;;;15.50;99.90;;;;;;5073569;28;20036;-79
2022/10/24 09:57:11;;;;;;;1999.90;999.90;;;15.50;99.90;;;;;;5075739;28;20037;-84
2022/10/24 09:59:43;;;;;;;1999.90;999.90;;;15.60;99.90;;;;;;5075613;28;20845;-83
2022/10/24 10:02:26;;;;;;;1999.90;999.90;;;15.70;99.90;;;;;;5079122;28;20864;-80
2022/10/24 10:05:01;;;;;;;1999.90;999.90;;;15.80;99.90;;;;;;5078721;28;20160;-79
2022/10/24 10:07:30;;;;;;;1999.90;999.90;;;15.80;99.90;;;;;;5083047;28;20029;-85
2022/10/24 10:09:58;;;;;;;1999.90;999.90;;;15.70;99.90;;;;;;5079472;28;20033;-86
2022/10/24 10:12:30;;;;;;;1999.90;999.90;;;15.80;99.90;;;;;;5080693;28;20068;-86
2022/10/24 10:14:56;;;;;;;1999.90;999.90;;;15.80;99.90;;;;;;5078218;28;20041;-86
2022/10/24 10:17:27;;;;;;;1999.90;999.90;;;15.70;99.90;;;;;;5069206;28;20030;-85
2022/10/24 10:19:54;;;;;;;1999.90;999.90;;;16.00;99.90;;;;;;5056365;28;20372;-85
2022/10/24 10:22:24;;;;;;;1999.90;999.90;;;15.90;99.90;;;;;;5057676;28;20029;-85
2022/10/24 10:24:50;;;;;;;1999.90;999.90;;;15.80;99.90;;;;;;5058081;28;20744;-86
2022/10/24 10:27:29;;;;;;;1999.90;999.90;;;15.80;99.90;;;;;;5058594;28;20032;-87
2022/10/24 10:30:20;;;;;;;1999.90;999.90;;;15.80;99.90;;;;;;5059316;28;20037;-85
2022/10/24 10:33:05;;;;;;;1999.90;999.90;;;15.80;99.90;;;;;;5071209;28;20887;-87
2022/10/24 10:35:54;;;;;;;1999.90;999.90;;;15.80;99.90;;;;;;5086378;28;20508;-86
2022/10/24 10:38:57;;;;;;;1999.90;999.90;;;15.90;99.90;;;;;;5076339;28;20029;-86
2022/10/24 10:41:36;;;;;;;1999.90;999.90;;;15.90;99.90;;;;;;5057613;28;20121;-85
2022/10/24 10:44:13;;;;;;;1999.90;999.90;;;16.00;99.90;;;;;;5057137;28;20049;-85
2022/10/24 10:47:06;;;;;;;1999.90;999.90;;;16.10;99.90;;;;;;5055990;28;20033;-85
2022/10/24 10:49:40;;;;;;;1999.90;999.90;;;16.20;99.90;;;;;;5058669;28;20081;-85
2022/10/24 10:52:12;;;;;;;1999.90;999.90;;;16.30;99.90;;;;;;5060602;28;20030;-86
2022/10/24 10:54:59;;;;;;;1999.90;999.90;;;16.50;99.90;;;;;;5061073;28;20041;-84
2022/10/24 10:57:52;;;;;;;1999.90;999.90;;;16.60;99.90;;;;;;5060993;28;20040;-82
2022/10/24 11:00:33;;;;;;;1999.90;999.90;;;16.70;99.90;;;;;;5060606;28;20056;-82
2022/10/24 11:03:34;;;;;;;1999.90;999.90;;;16.60;99.90;;;;;;5058151;28;20034;-81
2022/10/24 11:06:21;;;;;;;1999.90;999.90;;;16.50;99.90;;;;;;5021546;28;20037;-84
2022/10/24 11:08:50;;;;;;;1999.90;999.90;;;16.50;99.90;;;;;;5056747;28;20091;-85
2022/10/24 11:11:21;;;;;;;1999.90;999.90;;;16.40;99.90;;;;;;5055585;28;20029;-84
2022/10/24 11:13:53;;;;;;;1999.90;999.90;;;16.30;99.90;;;;;;5057253;28;20034;-84
2022/10/24 11:16:24;;;;;;;1999.90;999.90;;;16.20;99.90;;;;;;5057027;28;20036;-85
2022/10/24 11:18:53;;;;;;;1999.90;999.90;;;16.10;99.90;;;;;;5054849;28;20029;-84
2022/10/24 11:21:24;;;;;;;1999.90;999.90;;;15.90;99.90;;;;;;5055054;28;20029;-83
2022/10/24 11:23:54;;;;;;;1999.90;999.90;;;15.70;99.90;;;;;;5057711;28;20495;-84
2022/10/24 11:26:26;;;;;;;1999.90;999.90;;;15.60;99.90;;;;;;5057396;28;20483;-84
2022/10/24 11:28:58;;;;;;;1999.90;999.90;;;15.50;99.90;;;;;;5054932;28;20034;-84
2022/10/24 11:31:45;;;;;;;1999.90;999.90;;;15.50;99.90;;;;;;5054343;28;20033;-84
2022/10/24 11:34:19;;;;;;;1999.90;999.90;;;15.50;99.90;;;;;;5054754;28;20108;-84
2022/10/24 11:37:01;;;;;;;1999.90;999.90;;;15.70;99.90;;;;;;5054123;28;20037;-84
2022/10/24 11:39:50;;;;;;;1999.90;999.90;;;15.80;99.90;;;;;;5054833;28;20049;-84
2022/10/24 11:42:44;;;;;;;1999.90;999.90;;;16.00;99.90;;;;;;5055990;28;20467;-84
2022/10/24 11:45:18;;;;;;;1999.90;999.90;;;16.10;99.90;;;;;;5054759;28;20388;-85
2022/10/24 11:47:43;;;;;;;1999.90;999.90;;;16.20;99.90;;;;;;5054380;28;20537;-85
2022/10/24 11:50:18;;;;;;;1999.90;999.90;;;16.30;99.90;;;;;;5055781;28;20044;-84
2022/10/24 11:53:18;;;;;;;1999.90;999.90;;;16.30;99.90;;;;;;5057034;28;20030;-85
2022/10/24 11:56:03;;;;;;;1999.90;999.90;;;16.40;99.90;;;;;;5053844;28;20037;-83
2022/10/24 11:58:32;;;;;;;1999.90;999.90;;;16.60;99.90;;;;;;5055130;28;20033;-84
2022/10/24 12:01:33;;;;;;;1999.90;999.90;;;16.70;99.90;;;;;;5056511;28;20521;-83
2022/10/24 12:04:16;;;;;;;1999.90;999.90;;;16.80;99.90;;;;;;5056702;28;20033;-83
2022/10/24 12:06:57;;;;;;;1999.90;999.90;;;16.80;99.90;;;;;;5056090;28;20029;-84
2022/10/24 12:09:43;;;;;;;1999.90;999.90;;;16.90;99.90;;;;;;5056626;28;20076;-83
2022/10/24 12:12:34;;;;;;;1999.90;999.90;;;16.80;99.90;;;;;;5056476;28;20060;-83
2022/10/24 12:15:44;;;;;;;1999.90;999.90;;;16.90;99.90;;;;;;5057919;28;20033;-83
2022/10/24 12:18:25;;;;;;;1999.90;999.90;;;17.00;99.90;;;;;;5056953;28;20033;-84
2022/10/24 12:20:55;;;;;;;1999.90;999.90;;;16.80;99.90;;;;;;5058165;28;20033;-83
2022/10/24 12:23:26;;;;;;;1999.90;999.90;;;16.70;99.90;;;;;;5057972;28;20050;-83
2022/10/24 12:26:17;;;;;;;1999.90;999.90;;;16.80;99.90;;;;;;5056844;28;20040;-83
2022/10/24 12:29:05;;;;;;;1999.90;999.90;;;16.80;99.90;;;;;;5064630;28;20060;-82
2022/10/24 12:31:34;;;;;;;1999.90;999.90;;;16.60;99.90;;;;;;5069283;28;20037;-83
2022/10/24 12:34:15;;;;;;;1999.90;999.90;;;16.60;99.90;;;;;;5077090;28;20040;-83
2022/10/24 12:37:10;;;;;;;1999.90;999.90;;;16.70;99.90;;;;;;5076819;28;20037;-84
2022/10/24 12:39:47;;;;;;;1999.90;999.90;;;16.70;99.90;;;;;;5031158;28;20059;-83
2022/10/24 12:42:33;;;;;;;1999.90;999.90;;;16.80;99.90;;;;;;5077590;28;20028;-84
2022/10/24 12:44:58;;;;;;;1999.90;999.90;;;16.90;99.90;;;;;;5036229;28;20120;-83
2022/10/24 12:47:27;;;;;;;1999.90;999.90;;;16.90;99.90;;;;;;5078175;28;20159;-84
2022/10/24 12:49:53;;;;;;;1999.90;999.90;;;16.90;99.90;;;;;;5076717;28;20048;-84
2022/10/24 12:52:31;;;;;;;1999.90;999.90;;;17.10;99.90;;;;;;5075477;28;20078;-83
2022/10/24 12:54:58;;;;;;;1999.90;999.90;;;17.10;99.90;;;;;;5075481;28;20044;-83
2022/10/24 12:57:31;;;;;;;1999.90;999.90;;;17.10;99.90;;;;;;5077056;28;20132;-84
2022/10/24 13:00:00;;;;;;;1999.90;999.90;;;17.30;99.90;;;;;;5076471;28;20032;-84
2022/10/24 13:02:49;;;;;;;1999.90;999.90;;;17.40;99.90;;;;;;5077107;28;20029;-84
2022/10/24 13:05:33;;;;;;;1999.90;999.90;;;17.40;99.90;;;;;;5075564;28;20044;-83
2022/10/24 13:08:01;;;;;;;1999.90;999.90;;;17.60;99.90;;;;;;5075387;28;20036;-84
2022/10/24 13:10:48;;;;;;;1999.90;999.90;;;17.60;99.90;;;;;;5075565;28;20188;-83
2022/10/24 13:13:37;;;;;;;1999.90;999.90;;;17.80;99.90;;;;;;5075471;28;20506;-83
2022/10/24 13:16:22;;;;;;;1999.90;999.90;;;17.80;99.90;;;;;;5077640;28;20530;-84
2022/10/24 13:19:00;;;;;;;1999.90;999.90;;;17.80;99.90;;;;;;5068002;28;20086;-83
2022/10/24 13:21:32;;;;;;;1999.90;999.90;;;17.90;99.90;;;;;;5065052;28;20068;-83
2022/10/24 13:24:16;;;;;;;1999.90;999.90;;;18.00;99.90;;;;;;5056294;28;20029;-83
2022/10/24 13:26:43;;;;;;;1999.90;999.90;;;18.00;99.90;;;;;;5054799;28;20137;-83
2022/10/24 13:29:33;;;;;;;1999.90;999.90;;;18.00;99.90;;;;;;5055381;28;20064;-83
2022/10/24 13:32:05;;;;;;;1999.90;999.90;;;18.00;99.90;;;;;;5041296;28;20042;-83
2022/10/24 13:34:54;;;;;;;1999.90;999.90;;;18.00;99.90;;;;;;5055635;28;20041;-83
2022/10/24 13:37:23;;;;;;;1999.90;999.90;;;18.00;99.90;;;;;;5043660;28;20118;-84
2022/10/24 13:39:53;;;;;;;1999.90;999.90;;;18.10;99.90;;;;;;5055330;28;20064;-83
2022/10/24 13:42:31;;;;;;;1999.90;999.90;;;18.00;99.90;;;;;;5066683;28;20025;-84
2022/10/24 13:45:05;;;;;;;1999.90;999.90;;;18.10;99.90;;;;;;5076209;28;20025;-83
2022/10/24 13:47:39;;;;;;;1999.90;999.90;;;18.00;99.90;;;;;;5078985;28;20029;-84
2022/10/24 13:50:17;;;;;;;1999.90;999.90;;;17.90;99.90;;;;;;5076556;28;20037;-84
2022/10/24 13:52:47;;;;;;;1999.90;999.90;;;18.00;99.90;;;;;;5077887;28;20025;-83
2022/10/24 13:55:17;;;;;;;1999.90;999.90;;;18.00;99.90;;;;;;5077902;28;20044;-85
2022/10/24 13:57:53;;;;;;;1999.90;999.90;;;18.00;99.90;;;;;;5084195;28;20745;-83
2022/10/24 14:00:25;;;;;;;1999.90;999.90;;;18.00;99.90;;;;;;5089589;28;20033;-84
2022/10/24 14:02:52;;;;;;;1999.90;999.90;;;18.00;99.90;;;;;;5081726;28;20103;-85
2022/10/24 14:05:29;;;;;;;1999.90;999.90;;;18.10;99.90;;;;;;5073259;28;20498;-85
2022/10/24 14:07:55;;;;;;;1999.90;999.90;;;18.20;99.90;;;;;;5075543;28;20461;-85
2022/10/24 14:10:21;;;;;;;1999.90;999.90;;;18.30;99.90;;;;;;5076419;28;20510;-86
2022/10/24 14:12:50;;;;;;;1999.90;999.90;;;18.20;99.90;;;;;;5075845;28;20029;-82
2022/10/24 14:15:21;;;;;;;1999.90;999.90;;;18.00;99.90;;;;;;5075644;28;20536;-81
2022/10/24 14:18:13;;;;;;;1999.90;999.90;;;18.00;99.90;;;;;;5075872;28;20037;-81
2022/10/24 14:20:39;;;;;;;1999.90;999.90;;;18.10;99.90;;;;;;5074441;28;20067;-82
2022/10/24 14:23:34;;;;;;;1999.90;999.90;;;18.10;99.90;;;;;;5077261;28;20478;-82
2022/10/24 14:26:11;;;;;;;1999.90;999.90;;;18.20;99.90;;;;;;5073460;28;20548;-82
2022/10/24 14:28:43;;;;;;;1999.90;999.90;;;18.00;99.90;;;;;;5075870;28;20029;-82
2022/10/24 14:31:23;;;;;;;1999.90;999.90;;;18.00;99.90;;;;;;5076178;28;20103;-82
2022/10/24 14:33:51;;;;;;;1999.90;999.90;;;18.00;99.90;;;;;;5077281;28;20112;-82
2022/10/24 14:36:20;;;;;;;1999.90;999.90;;;17.90;99.90;;;;;;5074942;28;20044;-81
2022/10/24 14:38:57;;;;;;;1999.90;999.90;;;17.70;99.90;;;;;;5075358;28;20089;-85
2022/10/24 14:41:31;;;;;;;1999.90;999.90;;;17.70;99.90;;;;;;5077496;28;20052;-83
2022/10/24 14:43:58;;;;;;;1999.90;999.90;;;17.70;99.90;;;;;;5078010;28;20032;-83
2022/10/24 14:46:36;;;;;;;1999.90;999.90;;;17.70;99.90;;;;;;5078802;28;20044;-83
2022/10/24 14:49:37;;;;;;;1999.90;999.90;;;17.60;99.90;;;;;;5079089;28;20037;-82
2022/10/24 14:52:21;;;;;;;1999.90;999.90;;;17.60;99.90;;;;;;5080001;28;20116;-82
2022/10/24 14:54:57;;;;;;;1999.90;999.90;;;17.70;99.90;;;;;;5068860;28;20104;-82
2022/10/24 14:57:24;;;;;;;1999.90;999.90;;;17.70;99.90;;;;;;5057751;28;20033;-82
2022/10/24 14:59:52;;;;;;;1999.90;999.90;;;17.80;99.90;;;;;;5057529;28;20044;-81
2022/10/24 15:02:46;;;;;;;1999.90;999.90;;;17.90;99.90;;;;;;5058772;28;20132;-81
2022/10/24 15:05:19;;;;;;;1999.90;999.90;;;18.10;99.90;;;;;;5057351;28;20033;-84
2022/10/24 15:07:47;;;;;;;1999.90;999.90;;;18.10;99.90;;;;;;5058405;28;20064;-82
2022/10/24 15:10:16;;;;;;;1999.90;999.90;;;18.10;99.90;;;;;;5059200;28;20045;-82
2022/10/24 15:12:41;;;;;;;1999.90;999.90;;;18.10;99.90;;;;;;5059512;28;20079;-82
2022/10/24 15:15:42;;;;;;;1999.90;999.90;;;18.00;99.90;;;;;;5058781;28;20541;-82
2022/10/24 15:18:17;;;;;;;1999.90;999.90;;;18.00;99.90;;;;;;5041754;28;20042;-82
2022/10/24 15:20:45;;;;;;;1999.90;999.90;;;18.00;99.90;;;;;;5058573;28;20554;-84
2022/10/24 15:23:29;;;;;;;1999.90;999.90;;;17.90;99.90;;;;;;5058912;28;20025;-82
2022/10/24 15:26:15;;;;;;;1999.90;999.90;;;17.80;99.90;;;;;;5058829;28;20029;-83
2022/10/24 15:28:47;;;;;;;1999.90;999.90;;;17.70;99.90;;;;;;5058356;28;20034;-83
2022/10/24 15:31:15;;;;;;;1999.90;999.90;;;17.70;99.90;;;;;;5060379;28;20051;-83
2022/10/24 15:33:41;;;;;;;1999.90;999.90;;;17.50;99.90;;;;;;5059485;28;20525;-82
2022/10/24 15:36:16;;;;;;;1999.90;999.90;;;17.40;99.90;;;;;;5064156;28;20044;-83
2022/10/24 15:38:41;;;;;;;1999.90;999.90;;;17.30;99.90;;;;;;5068744;28;20040;-83
2022/10/24 15:41:08;;;;;;;1999.90;999.90;;;17.00;99.90;;;;;;5067094;28;20040;-83
2022/10/24 15:43:34;;;;;;;1999.90;999.90;;;16.90;99.90;;;;;;5068797;28;20056;-83
2022/10/24 15:46:00;;;;;;;1999.90;999.90;;;16.60;99.90;;;;;;5062791;28;20173;-82
2022/10/24 15:48:25;;;;;;;1999.90;999.90;;;16.40;99.90;;;;;;5057831;28;20499;-82
2022/10/24 15:50:51;;;;;;;1999.90;999.90;;;16.30;99.90;;;;;;5055691;28;20468;-82
2022/10/24 15:53:19;;;;;;;1999.90;999.90;;;16.30;99.90;;;;;;5056393;28;20033;-83
2022/10/24 15:55:45;;;;;;;1999.90;999.90;;;16.20;99.90;;;;;;5057835;28;20038;-83
2022/10/24 15:58:15;;;;;;;1999.90;999.90;;;16.00;99.90;;;;;;5055540;28;20033;-82
2022/10/24 16:00:41;;;;;;;1999.90;999.90;;;16.00;99.90;;;;;;5055732;28;20064;-82
2022/10/24 16:03:10;;;;;;;1999.90;999.90;;;16.20;99.90;;;;;;5056349;28;20036;-82
2022/10/24 16:05:39;;;;;;;1999.90;999.90;;;16.10;99.90;;;;;;5055988;28;20116;-82
2022/10/24 16:08:09;;;;;;;1999.90;999.90;;;16.00;99.90;;;;;;5056222;28;20096;-82
2022/10/24 16:10:35;;;;;;;1999.90;999.90;;;15.90;99.90;;;;;;5057993;28;20061;-83
2022/10/24 16:13:00;;;;;;;1999.90;999.90;;;15.90;99.90;;;;;;5057335;28;20510;-83
2022/10/24 16:15:32;;;;;;;1999.90;999.90;;;15.90;99.90;;;;;;5057489;28;20049;-82
2022/10/24 16:17:57;;;;;;;1999.90;999.90;;;15.90;99.90;;;;;;5058495;28;20038;-85
2022/10/24 16:20:23;;;;;;;1999.90;999.90;;;15.90;99.90;;;;;;5058869;28;20471;-82
2022/10/24 16:22:49;;;;;;;1999.90;999.90;;;15.70;99.90;;;;;;5057085;28;20034;-82